sensor_id;sensor_type;location;lat;lon;timestamp;pressure;altitude;pressure_sealevel;temperature;humidity
61900;BME280;47853;55.890;37.664;2023-01-29T00:02:12;99471.97;;;-0.63;100.00
61900;BME280;47853;55.890;37.664;2023-01-29T00:04:37;99470.50;;;-0.82;100.00
61900;BME280;47853;55.890;37.664;2023-01-29T00:07:03;99485.28;;;-0.82;100.00
61900;BME280;47853;55.890;37.664;2023-01-29T00:09:28;99474.88;;;-0.82;100.00
61900;BME280;47853;55.890;37.664;2023-01-29T00:11:53;99459.00;;;-1.23;100.00
61900;BME280;47853;55.890;37.664;2023-01-29T00:14:19;99468.03;;;-1.28;100.00
61900;BME280;47853;55.890;37.664;2023-01-29T00:16:44;99461.88;;;-1.58;100.00
61900;BME280;47853;55.890;37.664;2023-01-29T00:19:09;99471.59;;;-1.76;100.00
61900;BME280;47853;55.890;37.664;2023-01-29T00:21:35;99459.38;;;-1.59;100.00
61900;BME280;47853;55.890;37.664;2023-01-29T00:24:00;99458.94;;;-1.52;100.00
61900;BME280;47853;55.890;37.664;2023-01-29T00:26:26;99470.44;;;-1.56;100.00
61900;BME280;47853;55.890;37.664;2023-01-29T00:28:52;99464.94;;;-1.35;100.00
61900;BME280;47853;55.890;37.664;2023-01-29T00:31:21;99464.38;;;-1.71;100.00
61900;BME280;47853;55.890;37.664;2023-01-29T00:33:48;99470.38;;;-1.54;100.00
61900;BME280;47853;55.890;37.664;2023-01-29T00:36:15;99471.44;;;-1.42;100.00
61900;BME280;47853;55.890;37.664;2023-01-29T00:38:41;99459.75;;;-1.51;100.00
61900;BME280;47853;55.890;37.664;2023-01-29T00:41:11;99454.19;;;-1.00;100.00
61900;BME280;47853;55.890;37.664;2023-01-29T00:43:37;99432.03;;;-1.52;100.00
61900;BME280;47853;55.890;37.664;2023-01-29T00:46:02;99440.63;;;-1.36;100.00
61900;BME280;47853;55.890;37.664;2023-01-29T00:48:27;99445.81;;;-1.50;100.00
61900;BME280;47853;55.890;37.664;2023-01-29T00:50:53;99446.66;;;-1.50;100.00
61900;BME280;47853;55.890;37.664;2023-01-29T00:53:18;99427.97;;;-1.72;100.00
61900;BME280;47853;55.890;37.664;2023-01-29T00:55:43;99447.59;;;-1.51;100.00
61900;BME280;47853;55.890;37.664;2023-01-29T00:58:09;99432.53;;;-1.46;100.00
61900;BME280;47853;55.890;37.664;2023-01-29T01:00:34;99454.06;;;-1.58;100.00
61900;BME280;47853;55.890;37.664;2023-01-29T01:02:59;99446.81;;;-1.22;100.00
61900;BME280;47853;55.890;37.664;2023-01-29T01:05:25;99440.72;;;-1.52;100.00
61900;BME280;47853;55.890;37.664;2023-01-29T01:07:52;99431.38;;;-1.25;100.00
61900;BME280;47853;55.890;37.664;2023-01-29T01:10:23;99432.75;;;-1.65;100.00
61900;BME280;47853;55.890;37.664;2023-01-29T01:12:52;99428.56;;;-1.67;100.00
61900;BME280;47853;55.890;37.664;2023-01-29T01:15:18;99429.47;;;-1.99;100.00
61900;BME280;47853;55.890;37.664;2023-01-29T01:17:44;99429.69;;;-1.57;100.00
61900;BME280;47853;55.890;37.664;2023-01-29T01:20:10;99437.31;;;-1.84;100.00
61900;BME280;47853;55.890;37.664;2023-01-29T01:22:35;99443.78;;;-1.76;100.00
61900;BME280;47853;55.890;37.664;2023-01-29T01:25:01;99423.47;;;-1.54;100.00
61900;BME280;47853;55.890;37.664;2023-01-29T01:27:26;99434.75;;;-1.54;100.00
61900;BME280;47853;55.890;37.664;2023-01-29T01:29:51;99426.34;;;-1.14;100.00
61900;BME280;47853;55.890;37.664;2023-01-29T01:32:17;99441.06;;;-0.69;100.00
61900;BME280;47853;55.890;37.664;2023-01-29T01:34:42;99424.38;;;-0.81;100.00
61900;BME280;47853;55.890;37.664;2023-01-29T01:37:07;99411.53;;;-0.84;100.00
61900;BME280;47853;55.890;37.664;2023-01-29T01:39:33;99419.34;;;-0.70;100.00
61900;BME280;47853;55.890;37.664;2023-01-29T01:41:58;99427.44;;;-0.60;100.00
61900;BME280;47853;55.890;37.664;2023-01-29T01:44:55;99425.47;;;-0.42;100.00
61900;BME280;47853;55.890;37.664;2023-01-29T01:49:53;99410.50;;;-0.67;100.00
61900;BME280;47853;55.890;37.664;2023-01-29T01:52:20;99411.94;;;-0.49;100.00
61900;BME280;47853;55.890;37.664;2023-01-29T01:54:46;99405.19;;;-0.66;100.00
61900;BME280;47853;55.890;37.664;2023-01-29T01:57:16;99408.06;;;-0.56;100.00
61900;BME280;47853;55.890;37.664;2023-01-29T01:59:46;99408.28;;;-0.74;100.00
61900;BME280;47853;55.890;37.664;2023-01-29T02:02:14;99397.88;;;-0.46;100.00
61900;BME280;47853;55.890;37.664;2023-01-29T02:04:45;99400.03;;;-0.38;100.00
61900;BME280;47853;55.890;37.664;2023-01-29T02:07:14;99389.78;;;-0.41;100.00
61900;BME280;47853;55.890;37.664;2023-01-29T02:10:03;99382.78;;;-0.41;100.00
61900;BME280;47853;55.890;37.664;2023-01-29T02:12:31;99395.81;;;-0.13;100.00
61900;BME280;47853;55.890;37.664;2023-01-29T02:14:57;99385.66;;;-1.17;100.00
61900;BME280;47853;55.890;37.664;2023-01-29T02:17:22;99371.19;;;-1.51;100.00
61900;BME280;47853;55.890;37.664;2023-01-29T02:30:23;99365.47;;;-2.98;100.00
61900;BME280;47853;55.890;37.664;2023-01-29T02:35:42;99349.88;;;-2.98;100.00
61900;BME280;47853;55.890;37.664;2023-01-29T02:38:20;99348.06;;;-3.29;100.00
61900;BME280;47853;55.890;37.664;2023-01-29T02:40:56;99353.53;;;-3.52;100.00
61900;BME280;47853;55.890;37.664;2023-01-29T02:44:17;99347.63;;;-3.38;100.00
61900;BME280;47853;55.890;37.664;2023-01-29T02:49:05;99340.81;;;-3.40;100.00
61900;BME280;47853;55.890;37.664;2023-01-29T02:51:36;99339.03;;;-3.06;100.00
61900;BME280;47853;55.890;37.664;2023-01-29T02:56:40;99321.22;;;-3.46;100.00
61900;BME280;47853;55.890;37.664;2023-01-29T02:59:17;99322.19;;;-3.31;100.00
61900;BME280;47853;55.890;37.664;2023-01-29T03:01:48;99321.66;;;-3.38;100.00
61900;BME280;47853;55.890;37.664;2023-01-29T03:04:19;99321.06;;;-3.43;100.00
61900;BME280;47853;55.890;37.664;2023-01-29T03:06:53;99319.13;;;-3.39;100.00
61900;BME280;47853;55.890;37.664;2023-01-29T03:09:27;99305.28;;;-2.90;100.00
61900;BME280;47853;55.890;37.664;2023-01-29T03:11:58;99320.25;;;-3.27;100.00
61900;BME280;47853;55.890;37.664;2023-01-29T03:14:34;99317.00;;;-2.99;100.00
61900;BME280;47853;55.890;37.664;2023-01-29T03:17:01;99316.81;;;-3.28;100.00
61900;BME280;47853;55.890;37.664;2023-01-29T03:19:35;99306.41;;;-3.44;100.00
61900;BME280;47853;55.890;37.664;2023-01-29T03:22:05;99309.09;;;-3.29;100.00
61900;BME280;47853;55.890;37.664;2023-01-29T03:24:53;99288.34;;;-2.97;100.00
61900;BME280;47853;55.890;37.664;2023-01-29T03:27:22;99267.78;;;-3.18;100.00
61900;BME280;47853;55.890;37.664;2023-01-29T03:29:49;99268.56;;;-3.00;100.00
61900;BME280;47853;55.890;37.664;2023-01-29T03:32:18;99255.91;;;-2.90;100.00
61900;BME280;47853;55.890;37.664;2023-01-29T03:34:49;99266.44;;;-3.25;100.00
61900;BME280;47853;55.890;37.664;2023-01-29T03:39:48;99258.66;;;-2.77;100.00
61900;BME280;47853;55.890;37.664;2023-01-29T03:42:26;99257.34;;;-3.00;100.00
61900;BME280;47853;55.890;37.664;2023-01-29T03:45:04;99255.66;;;-2.85;100.00
61900;BME280;47853;55.890;37.664;2023-01-29T03:50:10;99238.34;;;-2.70;100.00
61900;BME280;47853;55.890;37.664;2023-01-29T03:52:44;99246.59;;;-3.10;100.00
61900;BME280;47853;55.890;37.664;2023-01-29T03:57:55;99231.31;;;-3.48;100.00
61900;BME280;47853;55.890;37.664;2023-01-29T04:00:40;99243.00;;;-3.08;100.00
61900;BME280;47853;55.890;37.664;2023-01-29T04:03:21;99236.38;;;-3.13;100.00
61900;BME280;47853;55.890;37.664;2023-01-29T04:05:51;99216.19;;;-3.24;100.00
61900;BME280;47853;55.890;37.664;2023-01-29T04:08:25;99218.53;;;-2.57;100.00
61900;BME280;47853;55.890;37.664;2023-01-29T04:10:53;99221.28;;;-3.55;100.00
61900;BME280;47853;55.890;37.664;2023-01-29T04:13:21;99209.97;;;-3.54;100.00
61900;BME280;47853;55.890;37.664;2023-01-29T04:15:57;99220.09;;;-3.65;100.00
61900;BME280;47853;55.890;37.664;2023-01-29T04:18:24;99200.84;;;-3.61;100.00
61900;BME280;47853;55.890;37.664;2023-01-29T04:20:50;99206.63;;;-3.56;100.00
61900;BME280;47853;55.890;37.664;2023-01-29T04:23:24;99221.13;;;-3.36;100.00
61900;BME280;47853;55.890;37.664;2023-01-29T04:26:24;99210.63;;;-3.18;100.00
61900;BME280;47853;55.890;37.664;2023-01-29T04:29:16;99215.03;;;-3.84;100.00
61900;BME280;47853;55.890;37.664;2023-01-29T04:31:52;99191.41;;;-3.96;100.00
61900;BME280;47853;55.890;37.664;2023-01-29T04:34:27;99217.56;;;-4.00;100.00
61900;BME280;47853;55.890;37.664;2023-01-29T04:39:44;99215.81;;;-3.66;100.00
61900;BME280;47853;55.890;37.664;2023-01-29T04:42:31;99197.91;;;-3.39;100.00
61900;BME280;47853;55.890;37.664;2023-01-29T04:45:17;99212.97;;;-3.61;100.00
61900;BME280;47853;55.890;37.664;2023-01-29T04:53:17;99205.19;;;-3.45;100.00
61900;BME280;47853;55.890;37.664;2023-01-29T04:56:10;99192.72;;;-3.55;100.00
61900;BME280;47853;55.890;37.664;2023-01-29T04:58:46;99201.81;;;-3.64;100.00
61900;BME280;47853;55.890;37.664;2023-01-29T05:01:15;99199.31;;;-3.65;100.00
61900;BME280;47853;55.890;37.664;2023-01-29T05:03:46;99198.53;;;-3.83;100.00
61900;BME280;47853;55.890;37.664;2023-01-29T05:06:17;99181.56;;;-4.06;100.00
61900;BME280;47853;55.890;37.664;2023-01-29T05:08:43;99196.50;;;-3.94;100.00
61900;BME280;47853;55.890;37.664;2023-01-29T05:11:10;99196.16;;;-3.88;100.00
61900;BME280;47853;55.890;37.664;2023-01-29T05:13:37;99197.25;;;-3.92;100.00
61900;BME280;47853;55.890;37.664;2023-01-29T05:16:08;99187.91;;;-3.95;100.00
61900;BME280;47853;55.890;37.664;2023-01-29T05:18:34;99186.06;;;-3.92;100.00
61900;BME280;47853;55.890;37.664;2023-01-29T05:21:06;99192.03;;;-3.74;100.00
61900;BME280;47853;55.890;37.664;2023-01-29T05:23:33;99202.56;;;-3.78;100.00
61900;BME280;47853;55.890;37.664;2023-01-29T05:25:59;99194.00;;;-3.80;100.00
61900;BME280;47853;55.890;37.664;2023-01-29T05:28:24;99207.53;;;-3.57;100.00
61900;BME280;47853;55.890;37.664;2023-01-29T05:30:52;99201.25;;;-3.53;100.00
61900;BME280;47853;55.890;37.664;2023-01-29T05:33:29;99191.03;;;-3.56;100.00
61900;BME280;47853;55.890;37.664;2023-01-29T05:35:55;99185.34;;;-3.46;100.00
61900;BME280;47853;55.890;37.664;2023-01-29T05:38:22;99188.53;;;-3.41;100.00
61900;BME280;47853;55.890;37.664;2023-01-29T05:40:47;99200.50;;;-3.55;100.00
61900;BME280;47853;55.890;37.664;2023-01-29T05:43:15;99191.38;;;-3.46;100.00
61900;BME280;47853;55.890;37.664;2023-01-29T05:45:42;99203.34;;;-3.59;100.00
61900;BME280;47853;55.890;37.664;2023-01-29T05:48:07;99182.81;;;-3.80;100.00
61900;BME280;47853;55.890;37.664;2023-01-29T05:50:32;99201.75;;;-3.62;100.00
61900;BME280;47853;55.890;37.664;2023-01-29T05:52:59;99199.94;;;-3.28;100.00
61900;BME280;47853;55.890;37.664;2023-01-29T05:55:26;99183.09;;;-3.53;100.00
61900;BME280;47853;55.890;37.664;2023-01-29T05:57:51;99191.22;;;-3.59;100.00
61900;BME280;47853;55.890;37.664;2023-01-29T06:00:17;99180.66;;;-3.56;100.00
61900;BME280;47853;55.890;37.664;2023-01-29T06:02:43;99183.06;;;-3.69;100.00
61900;BME280;47853;55.890;37.664;2023-01-29T06:05:08;99184.06;;;-3.55;100.00
61900;BME280;47853;55.890;37.664;2023-01-29T06:07:33;99183.59;;;-3.62;100.00
61900;BME280;47853;55.890;37.664;2023-01-29T06:09:59;99192.97;;;-3.43;100.00
61900;BME280;47853;55.890;37.664;2023-01-29T06:12:26;99201.63;;;-3.76;100.00
61900;BME280;47853;55.890;37.664;2023-01-29T06:14:51;99185.81;;;-3.72;100.00
61900;BME280;47853;55.890;37.664;2023-01-29T06:17:17;99184.53;;;-3.81;100.00
61900;BME280;47853;55.890;37.664;2023-01-29T06:19:42;99185.00;;;-3.56;100.00
61900;BME280;47853;55.890;37.664;2023-01-29T06:22:07;99164.22;;;-3.56;100.00
61900;BME280;47853;55.890;37.664;2023-01-29T06:24:33;99174.72;;;-3.26;100.00
61900;BME280;47853;55.890;37.664;2023-01-29T06:26:58;99162.66;;;-3.59;100.00
61900;BME280;47853;55.890;37.664;2023-01-29T06:29:23;99174.31;;;-3.50;100.00
61900;BME280;47853;55.890;37.664;2023-01-29T06:31:49;99178.25;;;-3.27;100.00
61900;BME280;47853;55.890;37.664;2023-01-29T06:34:14;99174.44;;;-3.37;100.00
61900;BME280;47853;55.890;37.664;2023-01-29T06:36:39;99171.88;;;-3.53;100.00
61900;BME280;47853;55.890;37.664;2023-01-29T06:39:05;99169.69;;;-3.45;100.00
61900;BME280;47853;55.890;37.664;2023-01-29T06:41:30;99170.47;;;-3.76;100.00
61900;BME280;47853;55.890;37.664;2023-01-29T06:43:55;99157.34;;;-3.89;100.00
61900;BME280;47853;55.890;37.664;2023-01-29T06:46:21;99156.78;;;-3.62;100.00
61900;BME280;47853;55.890;37.664;2023-01-29T06:48:46;99170.09;;;-3.53;100.00
61900;BME280;47853;55.890;37.664;2023-01-29T06:51:12;99154.25;;;-3.80;100.00
61900;BME280;47853;55.890;37.664;2023-01-29T06:53:38;99130.56;;;-3.74;100.00
61900;BME280;47853;55.890;37.664;2023-01-29T06:56:04;99139.34;;;-3.28;100.00
61900;BME280;47853;55.890;37.664;2023-01-29T06:58:59;99148.63;;;-3.08;100.00
61900;BME280;47853;55.890;37.664;2023-01-29T07:01:31;99136.09;;;-3.48;100.00
61900;BME280;47853;55.890;37.664;2023-01-29T07:07:01;99090.66;;;-3.09;100.00
61900;BME280;47853;55.890;37.664;2023-01-29T07:12:26;99135.09;;;-2.68;100.00
61900;BME280;47853;55.890;37.664;2023-01-29T07:15:15;99051.34;;;-3.49;100.00
61900;BME280;47853;55.890;37.664;2023-01-29T07:18:05;99130.53;;;-2.79;100.00
61900;BME280;47853;55.890;37.664;2023-01-29T07:24:03;99120.84;;;-2.92;100.00
61900;BME280;47853;55.890;37.664;2023-01-29T07:29:31;99122.97;;;-3.45;100.00
61900;BME280;47853;55.890;37.664;2023-01-29T07:42:18;99111.00;;;-2.56;100.00
61900;BME280;47853;55.890;37.664;2023-01-29T07:50:54;99014.44;;;-3.09;100.00
61900;BME280;47853;55.890;37.664;2023-01-29T07:56:50;98978.94;;;-2.94;100.00
61900;BME280;47853;55.890;37.664;2023-01-29T08:06:03;99013.97;;;-3.46;100.00
61900;BME280;47853;55.890;37.664;2023-01-29T08:08:51;99059.19;;;-3.04;100.00
61900;BME280;47853;55.890;37.664;2023-01-29T08:11:25;99006.78;;;-2.96;100.00
61900;BME280;47853;55.890;37.664;2023-01-29T08:17:01;99038.06;;;-2.83;100.00
61900;BME280;47853;55.890;37.664;2023-01-29T08:19:45;98997.34;;;-3.28;100.00
61900;BME280;47853;55.890;37.664;2023-01-29T08:22:16;99046.81;;;-2.70;100.00
61900;BME280;47853;55.890;37.664;2023-01-29T08:24:49;98995.94;;;-2.74;100.00
61900;BME280;47853;55.890;37.664;2023-01-29T08:27:36;99086.59;;;-2.39;100.00
61900;BME280;47853;55.890;37.664;2023-01-29T08:30:03;99041.72;;;-2.57;100.00
61900;BME280;47853;55.890;37.664;2023-01-29T08:32:28;99094.84;;;-2.61;100.00
61900;BME280;47853;55.890;37.664;2023-01-29T08:35:29;99014.69;;;-3.28;100.00
61900;BME280;47853;55.890;37.664;2023-01-29T08:37:56;99005.63;;;-3.52;100.00
61900;BME280;47853;55.890;37.664;2023-01-29T08:40:22;98983.63;;;-3.30;100.00
61900;BME280;47853;55.890;37.664;2023-01-29T08:42:50;99044.91;;;-2.97;100.00
61900;BME280;47853;55.890;37.664;2023-01-29T08:45:16;99010.63;;;-3.18;100.00
61900;BME280;47853;55.890;37.664;2023-01-29T08:47:48;99024.72;;;-3.22;100.00
61900;BME280;47853;55.890;37.664;2023-01-29T08:50:15;99058.63;;;-3.09;100.00
61900;BME280;47853;55.890;37.664;2023-01-29T08:52:41;99068.75;;;-3.04;100.00
61900;BME280;47853;55.890;37.664;2023-01-29T08:55:07;99085.59;;;-2.81;100.00
61900;BME280;47853;55.890;37.664;2023-01-29T08:57:32;99070.94;;;-2.82;100.00
61900;BME280;47853;55.890;37.664;2023-01-29T08:59:58;99072.75;;;-2.99;100.00
61900;BME280;47853;55.890;37.664;2023-01-29T09:02:23;99079.53;;;-2.96;100.00
61900;BME280;47853;55.890;37.664;2023-01-29T09:04:48;99075.47;;;-2.86;100.00
61900;BME280;47853;55.890;37.664;2023-01-29T09:07:14;99058.47;;;-2.92;100.00
61900;BME280;47853;55.890;37.664;2023-01-29T09:09:39;99070.38;;;-2.73;100.00
61900;BME280;47853;55.890;37.664;2023-01-29T09:12:05;99060.28;;;-2.63;100.00
61900;BME280;47853;55.890;37.664;2023-01-29T09:14:30;99064.25;;;-2.72;100.00
61900;BME280;47853;55.890;37.664;2023-01-29T09:16:56;99056.72;;;-2.91;100.00
61900;BME280;47853;55.890;37.664;2023-01-29T09:19:21;99064.09;;;-2.54;100.00
61900;BME280;47853;55.890;37.664;2023-01-29T09:21:47;99051.44;;;-2.75;100.00
61900;BME280;47853;55.890;37.664;2023-01-29T09:24:12;99065.63;;;-2.81;100.00
61900;BME280;47853;55.890;37.664;2023-01-29T09:26:37;99050.78;;;-2.93;100.00
61900;BME280;47853;55.890;37.664;2023-01-29T09:29:09;99041.34;;;-2.65;100.00
61900;BME280;47853;55.890;37.664;2023-01-29T09:31:34;99006.41;;;-2.75;100.00
61900;BME280;47853;55.890;37.664;2023-01-29T09:34:00;99040.31;;;-2.48;100.00
61900;BME280;47853;55.890;37.664;2023-01-29T09:36:25;99025.34;;;-2.73;100.00
61900;BME280;47853;55.890;37.664;2023-01-29T09:38:50;99052.75;;;-2.68;100.00
61900;BME280;47853;55.890;37.664;2023-01-29T09:47:31;99049.41;;;-2.70;100.00
61900;BME280;47853;55.890;37.664;2023-01-29T09:52:36;99014.56;;;-2.67;100.00
61900;BME280;47853;55.890;37.664;2023-01-29T09:57:49;99023.59;;;-2.73;100.00
61900;BME280;47853;55.890;37.664;2023-01-29T10:00:23;99019.50;;;-2.63;100.00
61900;BME280;47853;55.890;37.664;2023-01-29T10:05:34;99013.19;;;-2.73;100.00
61900;BME280;47853;55.890;37.664;2023-01-29T10:08:17;99006.41;;;-2.90;100.00
61900;BME280;47853;55.890;37.664;2023-01-29T10:11:08;98983.56;;;-2.99;100.00
61900;BME280;47853;55.890;37.664;2023-01-29T10:13:43;98979.97;;;-2.68;100.00
61900;BME280;47853;55.890;37.664;2023-01-29T10:16:31;98967.25;;;-2.87;100.00
61900;BME280;47853;55.890;37.664;2023-01-29T10:21:51;98989.22;;;-3.07;100.00
61900;BME280;47853;55.890;37.664;2023-01-29T10:24:29;98946.19;;;-2.82;100.00
61900;BME280;47853;55.890;37.664;2023-01-29T10:26:58;98950.13;;;-2.48;100.00
61900;BME280;47853;55.890;37.664;2023-01-29T10:29:26;98956.38;;;-2.65;100.00
61900;BME280;47853;55.890;37.664;2023-01-29T10:31:56;98960.63;;;-2.93;100.00
61900;BME280;47853;55.890;37.664;2023-01-29T10:34:28;98926.59;;;-2.88;100.00
61900;BME280;47853;55.890;37.664;2023-01-29T10:36:55;98914.63;;;-3.05;100.00
61900;BME280;47853;55.890;37.664;2023-01-29T10:39:25;98915.72;;;-2.95;100.00
61900;BME280;47853;55.890;37.664;2023-01-29T10:48:03;98924.56;;;-2.26;100.00
61900;BME280;47853;55.890;37.664;2023-01-29T10:50:44;98921.09;;;-2.27;100.00
61900;BME280;47853;55.890;37.664;2023-01-29T10:53:37;98921.81;;;-2.52;100.00
61900;BME280;47853;55.890;37.664;2023-01-29T10:58:55;98928.91;;;-2.27;100.00
61900;BME280;47853;55.890;37.664;2023-01-29T11:01:23;98906.53;;;-2.29;100.00
61900;BME280;47853;55.890;37.664;2023-01-29T11:03:57;98912.47;;;-2.27;100.00
61900;BME280;47853;55.890;37.664;2023-01-29T11:06:28;98884.84;;;-2.43;100.00
61900;BME280;47853;55.890;37.664;2023-01-29T11:17:18;98872.41;;;-2.25;100.00
61900;BME280;47853;55.890;37.664;2023-01-29T11:19:47;98904.25;;;-2.49;100.00
61900;BME280;47853;55.890;37.664;2023-01-29T11:22:34;98892.50;;;-2.69;100.00
61900;BME280;47853;55.890;37.664;2023-01-29T11:25:18;98912.09;;;-2.63;100.00
61900;BME280;47853;55.890;37.664;2023-01-29T11:31:34;98879.44;;;-2.40;100.00
61900;BME280;47853;55.890;37.664;2023-01-29T11:34:18;98812.31;;;-2.89;100.00
61900;BME280;47853;55.890;37.664;2023-01-29T11:37:04;98891.72;;;-2.42;100.00
61900;BME280;47853;55.890;37.664;2023-01-29T11:45:31;98783.25;;;-3.09;100.00
61900;BME280;47853;55.890;37.664;2023-01-29T11:54:02;98831.97;;;-2.71;100.00
61900;BME280;47853;55.890;37.664;2023-01-29T11:59:50;98857.25;;;-2.45;100.00
61900;BME280;47853;55.890;37.664;2023-01-29T12:02:23;98878.88;;;-2.45;100.00
61900;BME280;47853;55.890;37.664;2023-01-29T12:04:53;98801.50;;;-2.96;100.00
61900;BME280;47853;55.890;37.664;2023-01-29T12:07:19;98858.00;;;-2.43;100.00
61900;BME280;47853;55.890;37.664;2023-01-29T12:10:01;98748.06;;;-3.00;100.00
61900;BME280;47853;55.890;37.664;2023-01-29T12:15:46;98864.28;;;-1.93;100.00
61900;BME280;47853;55.890;37.664;2023-01-29T12:46:37;98732.00;;;-3.07;100.00
61900;BME280;47853;55.890;37.664;2023-01-29T13:00:39;98842.94;;;-1.98;100.00
61900;BME280;47853;55.890;37.664;2023-01-29T13:06:01;98729.75;;;-2.99;100.00
61900;BME280;47853;55.890;37.664;2023-01-29T13:08:48;98799.19;;;-2.06;100.00
61900;BME280;47853;55.890;37.664;2023-01-29T13:11:32;98843.69;;;-2.23;100.00
61900;BME280;47853;55.890;37.664;2023-01-29T13:14:12;98845.00;;;-2.43;100.00
61900;BME280;47853;55.890;37.664;2023-01-29T13:16:44;98764.84;;;-3.06;100.00
61900;BME280;47853;55.890;37.664;2023-01-29T13:19:24;98833.44;;;-2.67;100.00
61900;BME280;47853;55.890;37.664;2023-01-29T13:21:53;98715.75;;;-3.38;100.00
61900;BME280;47853;55.890;37.664;2023-01-29T13:24:23;98699.50;;;-3.27;100.00
61900;BME280;47853;55.890;37.664;2023-01-29T13:26:50;98784.00;;;-2.80;100.00
61900;BME280;47853;55.890;37.664;2023-01-29T13:29:29;98707.56;;;-3.32;100.00
61900;BME280;47853;55.890;37.664;2023-01-29T13:31:56;98773.75;;;-2.68;100.00
61900;BME280;47853;55.890;37.664;2023-01-29T13:34:27;98746.09;;;-2.69;100.00
61900;BME280;47853;55.890;37.664;2023-01-29T13:36:58;98820.19;;;-2.49;100.00
61900;BME280;47853;55.890;37.664;2023-01-29T13:39:29;98756.81;;;-2.88;100.00
61900;BME280;47853;55.890;37.664;2023-01-29T13:41:57;98828.53;;;-2.71;100.00
61900;BME280;47853;55.890;37.664;2023-01-29T13:44:31;98795.91;;;-2.90;100.00
61900;BME280;47853;55.890;37.664;2023-01-29T13:46:59;98811.31;;;-2.59;100.00
61900;BME280;47853;55.890;37.664;2023-01-29T13:49:34;98683.47;;;-3.34;100.00
61900;BME280;47853;55.890;37.664;2023-01-29T13:52:25;98808.97;;;-2.77;100.00
61900;BME280;47853;55.890;37.664;2023-01-29T13:54:56;98788.81;;;-2.73;100.00
61900;BME280;47853;55.890;37.664;2023-01-29T14:08:04;98798.13;;;-2.84;100.00
61900;BME280;47853;55.890;37.664;2023-01-29T14:10:40;98803.31;;;-2.56;100.00
61900;BME280;47853;55.890;37.664;2023-01-29T14:15:45;98797.19;;;-2.55;100.00
61900;BME280;47853;55.890;37.664;2023-01-29T14:18:31;98794.25;;;-2.64;100.00
61900;BME280;47853;55.890;37.664;2023-01-29T14:21:00;98797.31;;;-2.44;100.00
61900;BME280;47853;55.890;37.664;2023-01-29T14:31:42;98792.78;;;-2.68;100.00
61900;BME280;47853;55.890;37.664;2023-01-29T14:34:30;98765.22;;;-2.70;100.00
61900;BME280;47853;55.890;37.664;2023-01-29T14:37:14;98780.41;;;-2.37;100.00
61900;BME280;47853;55.890;37.664;2023-01-29T14:39:48;98758.78;;;-2.65;100.00
61900;BME280;47853;55.890;37.664;2023-01-29T14:45:36;98774.53;;;-2.53;100.00
61900;BME280;47853;55.890;37.664;2023-01-29T14:56:02;98779.50;;;-2.63;100.00
61900;BME280;47853;55.890;37.664;2023-01-29T14:58:41;98777.13;;;-2.81;100.00
61900;BME280;47853;55.890;37.664;2023-01-29T15:01:34;98767.66;;;-2.82;100.00
61900;BME280;47853;55.890;37.664;2023-01-29T15:09:19;98773.53;;;-2.78;100.00
61900;BME280;47853;55.890;37.664;2023-01-29T15:12:05;98778.13;;;-2.96;100.00
61900;BME280;47853;55.890;37.664;2023-01-29T15:14:38;98779.78;;;-3.10;100.00
61900;BME280;47853;55.890;37.664;2023-01-29T15:19:41;98784.13;;;-2.96;100.00
61900;BME280;47853;55.890;37.664;2023-01-29T15:22:10;98765.09;;;-3.24;100.00
61900;BME280;47853;55.890;37.664;2023-01-29T15:24:37;98780.03;;;-2.85;100.00
61900;BME280;47853;55.890;37.664;2023-01-29T15:27:13;98771.84;;;-2.79;100.00
61900;BME280;47853;55.890;37.664;2023-01-29T15:29:56;98780.91;;;-2.72;100.00
61900;BME280;47853;55.890;37.664;2023-01-29T15:32:30;98800.69;;;-3.11;100.00
61900;BME280;47853;55.890;37.664;2023-01-29T15:34:57;98800.53;;;-3.23;100.00
61900;BME280;47853;55.890;37.664;2023-01-29T15:37:29;98797.34;;;-3.13;100.00
61900;BME280;47853;55.890;37.664;2023-01-29T15:39:55;98775.94;;;-3.31;100.00
61900;BME280;47853;55.890;37.664;2023-01-29T15:42:21;98772.28;;;-2.72;100.00
61900;BME280;47853;55.890;37.664;2023-01-29T15:44:46;98774.38;;;-2.92;100.00
61900;BME280;47853;55.890;37.664;2023-01-29T15:47:12;98773.66;;;-2.67;100.00
61900;BME280;47853;55.890;37.664;2023-01-29T15:49:39;98773.97;;;-3.13;100.00
61900;BME280;47853;55.890;37.664;2023-01-29T15:52:12;98766.28;;;-2.87;100.00
61900;BME280;47853;55.890;37.664;2023-01-29T15:54:40;98753.22;;;-2.86;100.00
61900;BME280;47853;55.890;37.664;2023-01-29T15:57:05;98768.59;;;-3.10;100.00
61900;BME280;47853;55.890;37.664;2023-01-29T15:59:43;98771.47;;;-2.87;100.00
61900;BME280;47853;55.890;37.664;2023-01-29T16:04:56;98758.88;;;-2.94;100.00
61900;BME280;47853;55.890;37.664;2023-01-29T16:07:22;98770.38;;;-2.83;100.00
61900;BME280;47853;55.890;37.664;2023-01-29T16:09:54;98763.66;;;-2.73;100.00
61900;BME280;47853;55.890;37.664;2023-01-29T16:12:20;98740.88;;;-2.82;100.00
61900;BME280;47853;55.890;37.664;2023-01-29T16:14:48;98762.31;;;-2.93;100.00
61900;BME280;47853;55.890;37.664;2023-01-29T16:17:32;98743.78;;;-2.74;100.00
61900;BME280;47853;55.890;37.664;2023-01-29T16:19:59;98763.31;;;-2.81;100.00
61900;BME280;47853;55.890;37.664;2023-01-29T16:22:29;98757.41;;;-2.98;100.00
61900;BME280;47853;55.890;37.664;2023-01-29T16:25:00;98768.59;;;-3.10;100.00
61900;BME280;47853;55.890;37.664;2023-01-29T16:27:28;98767.72;;;-3.11;100.00
61900;BME280;47853;55.890;37.664;2023-01-29T16:29:55;98771.84;;;-3.07;100.00
61900;BME280;47853;55.890;37.664;2023-01-29T16:32:20;98767.41;;;-2.92;100.00
61900;BME280;47853;55.890;37.664;2023-01-29T16:34:46;98752.66;;;-2.91;100.00
61900;BME280;47853;55.890;37.664;2023-01-29T16:37:25;98754.13;;;-3.14;100.00
61900;BME280;47853;55.890;37.664;2023-01-29T16:39:52;98768.22;;;-3.18;100.00
61900;BME280;47853;55.890;37.664;2023-01-29T16:42:21;98751.13;;;-3.08;100.00